createdAt,value
2022-11-29T00:02:28.212Z,11.10
2022-11-29T00:05:29.925Z,10.70
2022-11-29T00:08:31.478Z,9.57
2022-11-29T00:11:53.670Z,9.30
2022-11-29T00:14:55.206Z,9.00
2022-11-29T00:17:56.724Z,8.93
2022-11-29T00:20:58.396Z,8.57
2022-11-29T00:24:00.035Z,8.90
2022-11-29T00:27:01.731Z,8.68
2022-11-29T00:30:04.078Z,8.75
2022-11-29T00:33:05.604Z,8.75
2022-11-29T00:36:07.511Z,8.95
2022-11-29T00:39:11.792Z,8.50
2022-11-29T00:42:13.707Z,9.10
2022-11-29T00:45:15.241Z,8.35
2022-11-29T00:48:16.763Z,8.95
2022-11-29T00:51:18.275Z,9.20
2022-11-29T00:54:19.879Z,8.50
2022-11-29T00:57:21.483Z,8.80
2022-11-29T01:00:23.180Z,9.23
2022-11-29T01:03:25.126Z,8.55
2022-11-29T01:06:26.697Z,8.90
2022-11-29T01:09:28.318Z,9.13
2022-11-29T01:12:29.892Z,8.97
2022-11-29T01:15:31.974Z,8.88
2022-11-29T01:18:34.055Z,9.10
2022-11-29T01:21:35.670Z,8.87
2022-11-29T01:24:37.172Z,9.52
2022-11-29T01:27:38.749Z,9.18
2022-11-29T01:30:40.327Z,9.52
2022-11-29T01:33:42.304Z,9.80
2022-11-29T01:36:43.819Z,10.20
2022-11-29T01:39:45.350Z,9.80
2022-11-29T01:42:46.980Z,9.30
2022-11-29T01:45:49.676Z,9.18
2022-11-29T01:48:53.905Z,9.93
2022-11-29T01:52:03.001Z,9.43
2022-11-29T01:55:07.010Z,9.45
2022-11-29T01:58:09.223Z,8.98
2022-11-29T02:01:11.126Z,9.48
2022-11-29T02:04:13.375Z,8.63
2022-11-29T02:07:15.662Z,9.25
2022-11-29T02:10:17.970Z,8.98
2022-11-29T02:13:28.343Z,8.97
2022-11-29T02:16:56.714Z,9.00
2022-11-29T02:20:26.259Z,8.85
2022-11-29T02:24:05.956Z,9.10
2022-11-29T02:27:39.704Z,8.75
2022-11-29T02:30:58.683Z,8.77
2022-11-29T02:34:32.700Z,9.05
2022-11-29T02:37:57.247Z,8.90
2022-11-29T02:41:30.890Z,8.07
2022-11-29T02:44:51.624Z,9.50
2022-11-29T02:48:38.711Z,8.57
2022-11-29T02:51:55.136Z,8.90
2022-11-29T02:55:12.944Z,8.80
2022-11-29T02:58:41.320Z,8.47
2022-11-29T03:02:10.597Z,8.80
2022-11-29T03:05:59.680Z,9.15
2022-11-29T03:09:12.317Z,8.77
2022-11-29T03:12:35.491Z,8.75
2022-11-29T03:15:53.990Z,9.13
2022-11-29T03:19:33.470Z,9.02
2022-11-29T03:22:47.920Z,8.33
2022-11-29T03:26:06.192Z,9.02
2022-11-29T03:29:32.610Z,8.60
2022-11-29T03:32:58.431Z,8.43
2022-11-29T03:36:12.863Z,8.52
2022-11-29T03:39:33.203Z,8.98
2022-11-29T03:42:38.757Z,8.38
2022-11-29T03:45:49.239Z,8.85
2022-11-29T03:49:16.084Z,8.88
2022-11-29T03:52:27.466Z,8.80
2022-11-29T03:55:45.158Z,8.37
2022-11-29T03:59:11.855Z,9.25
2022-11-29T04:02:35.092Z,8.40
2022-11-29T04:05:55.578Z,9.50
2022-11-29T04:09:12.361Z,9.35
2022-11-29T04:12:27.433Z,9.00
2022-11-29T04:15:49.859Z,9.27
2022-11-29T04:19:03.972Z,8.88
2022-11-29T04:22:11.226Z,8.82
2022-11-29T04:25:47.876Z,9.05
2022-11-29T04:29:07.492Z,8.80
2022-11-29T04:32:40.329Z,8.10
2022-11-29T04:36:08.185Z,7.97
2022-11-29T04:39:12.484Z,7.80
2022-11-29T04:42:26.308Z,7.38
2022-11-29T04:45:56.831Z,8.13
2022-11-29T04:49:36.326Z,8.05
2022-11-29T04:53:02.524Z,7.78
2022-11-29T04:56:28.918Z,7.90
2022-11-29T04:59:42.587Z,7.05
2022-11-29T05:02:59.423Z,7.67
2022-11-29T05:06:49.370Z,7.70
2022-11-29T05:10:15.257Z,7.75
2022-11-29T05:13:36.308Z,7.23
2022-11-29T05:17:00.029Z,6.95
2022-11-29T05:20:08.467Z,6.22
2022-11-29T05:23:34.630Z,6.45
2022-11-29T05:26:45.221Z,6.82
2022-11-29T05:30:11.013Z,7.63
2022-11-29T05:33:33.279Z,7.70
2022-11-29T05:36:59.608Z,8.43
2022-11-29T05:40:13.531Z,7.22
2022-11-29T05:43:30.231Z,7.07
2022-11-29T05:46:51.858Z,7.10
2022-11-29T05:50:07.377Z,7.10
2022-11-29T05:53:30.786Z,7.70
2022-11-29T05:56:51.204Z,8.88
2022-11-29T05:59:55.597Z,8.35
2022-11-29T06:03:15.880Z,8.85
2022-11-29T06:06:47.996Z,7.85
2022-11-29T06:10:11.562Z,7.80
2022-11-29T06:13:28.657Z,7.47
2022-11-29T06:16:36.468Z,7.97
2022-11-29T06:19:53.206Z,7.13
2022-11-29T06:23:16.368Z,7.50
2022-11-29T06:26:36.636Z,7.65
2022-11-29T06:30:18.296Z,7.90
2022-11-29T06:33:33.846Z,7.93
2022-11-29T06:37:00.238Z,7.60
2022-11-29T06:40:02.081Z,7.72
2022-11-29T06:43:03.936Z,7.30
2022-11-29T06:46:15.852Z,7.80
2022-11-29T06:49:34.489Z,7.40
2022-11-29T06:52:59.437Z,7.40
2022-11-29T06:56:29.353Z,7.13
2022-11-29T06:59:55.826Z,7.40
2022-11-29T07:03:45.627Z,7.70
2022-11-29T07:06:47.477Z,8.00
2022-11-29T07:09:58.407Z,7.93
2022-11-29T07:13:00.246Z,7.65
2022-11-29T07:16:35.780Z,7.57
2022-11-29T07:20:12.439Z,7.85
2022-11-29T07:23:35.024Z,7.68
2022-11-29T07:26:45.697Z,8.20
2022-11-29T07:29:55.530Z,8.15
2022-11-29T07:33:18.909Z,8.48
2022-11-29T07:36:26.530Z,8.73
2022-11-29T07:39:43.141Z,9.05
2022-11-29T07:43:18.298Z,10.10
2022-11-29T07:46:19.945Z,9.40
2022-11-29T07:49:21.498Z,9.47
2022-11-29T07:52:23.101Z,10.85
2022-11-29T07:55:26.597Z,10.18
2022-11-29T07:58:28.193Z,10.63
2022-11-29T08:01:31.069Z,10.60
2022-11-29T08:04:32.652Z,10.57
2022-11-29T08:07:35.708Z,11.15
2022-11-29T08:10:38.367Z,10.90
2022-11-29T08:13:39.942Z,11.40
2022-11-29T08:16:41.525Z,10.93
2022-11-29T08:19:43.066Z,11.20
2022-11-29T08:22:44.884Z,11.05
2022-11-29T08:25:46.607Z,10.90
2022-11-29T08:28:52.531Z,10.43
2022-11-29T08:31:54.553Z,10.95
2022-11-29T08:34:56.240Z,10.23
2022-11-29T08:37:57.784Z,10.18
2022-11-29T08:41:05.634Z,9.88
2022-11-29T08:44:07.641Z,10.95
2022-11-29T08:47:29.018Z,10.10
2022-11-29T08:50:30.558Z,10.10
2022-11-29T08:53:41.545Z,11.50
2022-11-29T08:57:30.972Z,11.23
2022-11-29T09:00:06.130Z,10.90
2022-11-29T09:03:26.894Z,11.15
2022-11-29T09:06:33.901Z,11.13
2022-11-29T09:09:35.398Z,10.68
2022-11-29T09:12:38.194Z,11.15
2022-11-29T09:15:41.835Z,11.27
2022-11-29T09:18:48.519Z,11.90
2022-11-29T09:21:52.959Z,10.90
2022-11-29T09:24:54.645Z,11.38
2022-11-29T09:27:58.943Z,10.38
2022-11-29T09:31:07.398Z,11.27
2022-11-29T09:34:08.972Z,10.55
2022-11-29T09:37:10.502Z,10.20
2022-11-29T09:40:19.885Z,11.10
2022-11-29T09:43:38.876Z,11.25
2022-11-29T09:47:00.341Z,10.40
2022-11-29T09:50:21.193Z,10.38
2022-11-29T09:54:00.430Z,10.07
2022-11-29T09:57:10.192Z,10.13
2022-11-29T10:00:19.964Z,10.23
2022-11-29T10:03:29.501Z,9.93
2022-11-29T10:06:38.982Z,9.77
2022-11-29T10:09:53.162Z,9.40
2022-11-29T10:13:00.458Z,9.75
2022-11-29T10:16:22.381Z,9.95
2022-11-29T10:19:42.864Z,10.52
2022-11-29T10:22:44.387Z,10.35
2022-11-29T10:25:48.676Z,10.07
2022-11-29T10:28:51.133Z,9.88
2022-11-29T10:31:56.616Z,10.48
2022-11-29T10:35:00.852Z,8.90
2022-11-29T10:41:27.146Z,9.23
2022-11-29T10:44:31.294Z,8.00
2022-11-29T10:47:33.140Z,8.38
2022-11-29T10:50:36.220Z,7.05
2022-11-29T10:53:37.841Z,7.15
2022-11-29T10:56:40.423Z,7.00
2022-11-29T10:59:57.557Z,8.18
2022-11-29T11:03:16.830Z,7.07
2022-11-29T11:06:19.612Z,7.67
2022-11-29T11:09:34.148Z,8.00
2022-11-29T11:12:37.043Z,7.28
2022-11-29T11:15:38.535Z,8.18
2022-11-29T11:18:40.279Z,7.30
2022-11-29T11:21:41.810Z,6.95
2022-11-29T11:24:44.646Z,7.32
2022-11-29T11:27:47.246Z,7.80
2022-11-29T11:31:09.938Z,7.40
2022-11-29T11:34:31.728Z,6.90
2022-11-29T11:37:35.644Z,6.20
2022-11-29T11:40:37.197Z,6.55
2022-11-29T11:43:39.559Z,6.65
2022-11-29T11:46:50.111Z,8.70
2022-11-29T11:50:04.474Z,6.05
2022-11-29T11:53:17.642Z,7.20
2022-11-29T11:56:19.873Z,6.53
2022-11-29T11:59:26.537Z,4.83
2022-11-29T12:02:40.422Z,4.72
2022-11-29T12:05:44.933Z,4.70
2022-11-29T12:08:49.538Z,4.57
2022-11-29T12:12:00.247Z,4.40
2022-11-29T12:15:10.665Z,4.13
2022-11-29T12:18:19.662Z,3.90
2022-11-29T12:21:25.680Z,4.22
2022-11-29T12:24:39.206Z,3.60
2022-11-29T12:27:40.769Z,3.85
2022-11-29T12:30:50.922Z,4.03
2022-11-29T12:34:19.605Z,4.38
2022-11-29T12:37:42.181Z,3.90
2022-11-29T12:41:05.416Z,3.67
2022-11-29T12:44:12.742Z,3.60
2022-11-29T12:47:45.233Z,3.47
2022-11-29T12:50:50.428Z,3.80
2022-11-29T12:54:18.455Z,3.53
2022-11-29T12:57:44.548Z,3.90
2022-11-29T13:01:02.726Z,3.47
2022-11-29T13:04:13.472Z,3.63
2022-11-29T13:07:34.850Z,4.03
2022-11-29T13:11:14.533Z,3.63
2022-11-29T13:18:10.995Z,4.10
2022-11-29T13:21:16.246Z,3.78
2022-11-29T13:24:23.723Z,4.28
2022-11-29T13:27:41.378Z,4.10
2022-11-29T13:30:43.016Z,5.28
2022-11-29T13:34:08.290Z,6.18
2022-11-29T13:37:18.903Z,7.17
2022-11-29T13:40:50.916Z,5.70
2022-11-29T13:44:02.784Z,6.50
2022-11-29T13:47:10.813Z,7.77
2022-11-29T13:50:39.139Z,7.43
2022-11-29T13:57:08.953Z,7.50
2022-11-29T14:00:32.357Z,8.10
2022-11-29T14:03:42.110Z,8.75
2022-11-29T14:06:43.724Z,8.18
2022-11-29T14:09:55.800Z,6.50
2022-11-29T14:12:59.841Z,7.28
2022-11-29T14:16:04.815Z,7.38
2022-11-29T14:19:20.025Z,8.13
2022-11-29T14:22:22.403Z,7.00
2022-11-29T14:25:50.649Z,9.80
2022-11-29T14:28:47.497Z,9.43
2022-11-29T14:31:54.923Z,7.13
2022-11-29T14:35:11.793Z,8.10
2022-11-29T14:38:23.969Z,6.03
2022-11-29T14:41:56.590Z,5.27
2022-11-29T14:45:04.624Z,5.50
2022-11-29T14:48:25.852Z,5.30
2022-11-29T14:51:32.601Z,5.70
2022-11-29T14:54:35.437Z,4.55
2022-11-29T14:57:54.187Z,5.20
2022-11-29T15:01:08.141Z,5.43
2022-11-29T15:04:12.583Z,5.10
2022-11-29T15:07:19.282Z,5.05
2022-11-29T15:10:28.232Z,4.88
2022-11-29T15:13:32.840Z,4.93
2022-11-29T15:16:45.465Z,4.80
2022-11-29T15:20:35.219Z,4.97
2022-11-29T15:23:42.540Z,4.90
2022-11-29T15:27:02.068Z,4.93
2022-11-29T15:30:39.696Z,5.35
2022-11-29T15:33:43.616Z,5.50
2022-11-29T15:36:45.221Z,5.57
2022-11-29T15:39:46.872Z,6.72
2022-11-29T15:43:14.087Z,6.82
2022-11-29T15:46:20.615Z,6.33
2022-11-29T15:49:27.319Z,8.32
2022-11-29T15:52:33.831Z,7.85
2022-11-29T15:55:35.741Z,8.10
2022-11-29T15:58:37.420Z,7.28
2022-11-29T16:01:40.479Z,6.85
2022-11-29T16:04:46.872Z,5.80
2022-11-29T16:07:53.255Z,6.28
2022-11-29T16:10:55.593Z,6.50
2022-11-29T16:14:21.895Z,6.60
2022-11-29T16:17:41.753Z,6.30
2022-11-29T16:20:45.407Z,8.45
2022-11-29T16:23:47.018Z,8.40
2022-11-29T16:26:50.061Z,8.70
2022-11-29T16:29:55.063Z,7.35
2022-11-29T16:33:03.396Z,7.40
2022-11-29T16:36:16.370Z,8.13
2022-11-29T16:39:23.600Z,8.02
2022-11-29T16:42:30.216Z,9.32
2022-11-29T16:45:33.883Z,9.35
2022-11-29T16:48:38.291Z,8.90
2022-11-29T16:51:48.009Z,10.20
2022-11-29T16:54:49.572Z,9.93
2022-11-29T16:57:52.178Z,10.50
2022-11-29T17:00:54.184Z,11.82
2022-11-29T17:23:49.713Z,8.30
2022-11-29T17:26:51.650Z,8.60
2022-11-29T17:29:53.266Z,8.80
2022-11-29T17:32:54.891Z,8.05
2022-11-29T17:35:56.457Z,8.33
2022-11-29T17:39:02.196Z,8.18
2022-11-29T17:42:03.786Z,7.70
2022-11-29T17:45:05.654Z,7.60
2022-11-29T17:48:07.265Z,8.30
2022-11-29T17:51:28.837Z,8.00
2022-11-29T17:54:33.038Z,8.38
2022-11-29T17:57:34.734Z,7.80
2022-11-29T18:00:36.580Z,8.20
2022-11-29T18:03:40.358Z,8.35
2022-11-29T18:06:42.111Z,8.17
2022-11-29T18:09:44.193Z,8.20
2022-11-29T18:12:46.041Z,8.82
2022-11-29T18:15:47.558Z,7.97
2022-11-29T18:18:55.939Z,8.52
2022-11-29T18:21:57.483Z,11.80
2022-11-29T18:25:16.139Z,11.45
2022-11-29T18:28:20.570Z,15.03
2022-11-29T18:31:28.295Z,13.23
2022-11-29T18:34:29.899Z,11.70
2022-11-29T18:38:05.087Z,11.30
2022-11-29T18:40:53.096Z,10.00
2022-11-29T18:44:00.508Z,10.43
2022-11-29T18:47:03.900Z,9.82
2022-11-29T18:50:06.111Z,10.65
2022-11-29T18:53:07.664Z,10.40
2022-11-29T18:56:17.411Z,11.23
2022-11-29T18:59:19.028Z,10.67
2022-11-29T19:02:20.664Z,9.95
2022-11-29T19:05:22.214Z,11.15
2022-11-29T19:08:25.475Z,11.03
2022-11-29T19:11:29.195Z,12.10
2022-11-29T19:14:32.341Z,12.63
2022-11-29T19:17:36.565Z,11.35
2022-11-29T19:20:41.732Z,11.95
2022-11-29T19:23:44.559Z,10.50
2022-11-29T19:26:47.455Z,10.50
2022-11-29T19:29:50.938Z,12.43
2022-11-29T19:32:52.700Z,13.02
2022-11-29T19:35:54.259Z,12.00
2022-11-29T19:38:59.696Z,11.77
2022-11-29T19:42:08.210Z,11.95
2022-11-29T19:45:18.685Z,12.05
2022-11-29T19:48:20.367Z,13.85
2022-11-29T19:51:23.300Z,13.00
2022-11-29T19:54:24.966Z,13.85
2022-11-29T19:57:29.698Z,13.95
2022-11-29T20:00:31.470Z,13.73
2022-11-29T20:03:35.692Z,13.57
2022-11-29T20:06:37.757Z,13.50
2022-11-29T20:09:39.445Z,12.87
2022-11-29T20:12:40.999Z,12.80
2022-11-29T20:15:42.614Z,14.20
2022-11-29T20:18:50.328Z,13.25
2022-11-29T20:21:52.408Z,13.48
2022-11-29T20:24:54.668Z,13.18
2022-11-29T20:27:56.285Z,12.80
2022-11-29T20:31:05.067Z,12.20
2022-11-29T20:34:07.163Z,13.25
2022-11-29T20:37:45.642Z,14.93
2022-11-29T20:41:04.789Z,12.97
2022-11-29T20:44:06.582Z,13.13
2022-11-29T20:47:13.989Z,12.48
2022-11-29T20:50:23.503Z,14.00
2022-11-29T20:53:34.036Z,14.35
2022-11-29T20:56:35.562Z,13.27
2022-11-29T20:59:37.247Z,13.55
2022-11-29T21:02:41.540Z,13.47
2022-11-29T21:05:44.163Z,14.30
2022-11-29T21:08:45.829Z,13.93
2022-11-29T21:11:47.694Z,13.67
2022-11-29T21:14:49.581Z,14.02
2022-11-29T21:17:51.567Z,16.05
2022-11-29T21:21:38.243Z,14.27
2022-11-29T21:24:42.454Z,14.63
2022-11-29T21:27:44.352Z,14.18
2022-11-29T21:30:46.148Z,14.45
2022-11-29T21:33:48.187Z,13.77
2022-11-29T21:36:58.004Z,13.70
2022-11-29T21:39:59.510Z,13.70
2022-11-29T21:43:01.136Z,13.07
2022-11-29T21:46:02.829Z,14.20
2022-11-29T21:49:04.966Z,13.90
2022-11-29T21:52:06.964Z,13.55
2022-11-29T21:55:08.952Z,14.27
2022-11-29T21:58:10.585Z,13.80
2022-11-29T22:01:15.649Z,13.80
2022-11-29T22:04:17.465Z,13.80
2022-11-29T22:07:19.022Z,13.55
2022-11-29T22:10:20.616Z,13.80
2022-11-29T22:13:22.161Z,14.10
2022-11-29T22:16:24.039Z,13.52
2022-11-29T22:19:26.986Z,13.80
2022-11-29T22:22:28.651Z,14.52
2022-11-29T22:25:30.256Z,13.32
2022-11-29T22:28:32.188Z,14.65
2022-11-29T22:31:35.236Z,14.07
2022-11-29T22:34:36.840Z,13.90
2022-11-29T22:37:38.425Z,14.38
2022-11-29T22:40:40.525Z,14.50
2022-11-29T22:43:42.863Z,13.73
2022-11-29T22:46:44.461Z,14.50
2022-11-29T22:49:46.041Z,14.68
2022-11-29T22:52:47.590Z,14.27
2022-11-29T22:55:49.168Z,13.80
2022-11-29T22:58:51.165Z,14.43
2022-11-29T23:01:52.925Z,14.48
2022-11-29T23:04:54.557Z,14.17
2022-11-29T23:07:56.163Z,14.35
2022-11-29T23:10:58.644Z,14.55
2022-11-29T23:14:00.375Z,14.30
2022-11-29T23:17:01.920Z,13.48
2022-11-29T23:20:03.758Z,14.35
2022-11-29T23:23:05.700Z,13.52
2022-11-29T23:26:09.140Z,13.82
2022-11-29T23:29:13.153Z,14.10
2022-11-29T23:32:14.688Z,13.93
2022-11-29T23:35:16.262Z,13.37
2022-11-29T23:38:18.370Z,14.32
2022-11-29T23:41:19.963Z,13.85
2022-11-29T23:44:21.467Z,13.97
2022-11-29T23:47:23.061Z,14.05
2022-11-29T23:50:24.637Z,14.05
2022-11-29T23:53:26.181Z,12.57
2022-11-29T23:56:28.006Z,13.70
2022-11-29T23:59:29.508Z,13.90
